Time;durP1;ratioP1;P1;durP2;ratioP2;P2;SDS_P1;SDS_P2;PMS_P1;PMS_P2;Temp;Humidity;BMP_temperature;BMP_pressure;BME280_temperature;BME280_humidity;BME280_pressure;Samples;Min_cycle;Max_cycle;Signal;HPM_P1;HPM_P2
2022/04/23 00:01:48;;;;;;;17.73;14.07;;;13.30;63.00;;;;;;21084261;28;20213;-63
2022/04/23 00:11:52;;;;;;;16.80;13.73;;;13.20;62.80;;;;;;21083349;28;20291;-62
2022/04/23 00:21:54;;;;;;;16.17;12.60;;;13.30;63.60;;;;;;21082561;28;20250;-64
2022/04/23 00:31:56;;;;;;;16.73;13.47;;;13.30;64.00;;;;;;21082501;28;20208;-63
2022/04/23 00:42:00;;;;;;;16.93;13.00;;;13.00;64.30;;;;;;21081510;28;20642;-67
2022/04/23 00:52:02;;;;;;;15.97;13.70;;;13.10;65.10;;;;;;21080847;28;20209;-67
2022/04/23 01:02:04;;;;;;;15.10;12.70;;;12.90;65.30;;;;;;21079671;28;20200;-68
2022/04/23 01:12:11;;;;;;;14.93;12.57;;;12.70;66.20;;;;;;21079324;28;20276;-64
2022/04/23 01:22:12;;;;;;;15.67;12.57;;;12.70;66.40;;;;;;21078782;28;20225;-64
2022/04/23 01:32:14;;;;;;;15.87;12.83;;;12.80;67.10;;;;;;21078208;28;20288;-64
2022/04/23 01:42:17;;;;;;;14.80;12.53;;;12.60;68.00;;;;;;21077526;28;20208;-67
2022/04/23 01:52:19;;;;;;;14.47;11.87;;;12.60;68.80;;;;;;21077939;28;20242;-67
2022/04/23 02:02:22;;;;;;;14.77;11.80;;;12.60;68.90;;;;;;21067463;28;20202;-67
2022/04/23 02:12:24;;;;;;;13.70;10.53;;;12.70;69.20;;;;;;21093134;28;20209;-63
2022/04/23 02:22:26;;;;;;;12.60;10.43;;;12.70;69.60;;;;;;21074733;28;20579;-64
2022/04/23 02:32:27;;;;;;;12.50;9.97;;;12.80;69.90;;;;;;21091635;28;20211;-66
2022/04/23 02:42:29;;;;;;;10.37;8.90;;;12.60;70.50;;;;;;21090467;28;20566;-63
2022/04/23 02:52:31;;;;;;;11.03;8.73;;;12.60;71.30;;;;;;21072283;28;20677;-65
2022/04/23 03:02:36;;;;;;;13.17;7.97;;;12.50;71.20;;;;;;21089049;28;20230;-67
2022/04/23 03:12:39;;;;;;;8.83;7.33;;;12.50;71.70;;;;;;21087961;28;20225;-66
2022/04/23 03:22:41;;;;;;;8.77;7.70;;;12.40;71.80;;;;;;21087833;28;20244;-64
2022/04/23 03:32:43;;;;;;;8.67;7.53;;;12.40;73.00;;;;;;21086801;28;20219;-66
2022/04/23 03:42:48;;;;;;;8.83;7.33;;;12.40;72.70;;;;;;21086137;28;20601;-63
2022/04/23 03:52:50;;;;;;;7.90;7.10;;;12.50;73.10;;;;;;21089368;28;20209;-66
2022/04/23 04:02:54;;;;;;;10.30;7.00;;;12.60;73.20;;;;;;21084932;28;20250;-64
2022/04/23 04:12:56;;;;;;;9.47;7.10;;;12.60;73.80;;;;;;21083708;28;20209;-64
2022/04/23 04:22:58;;;;;;;7.93;6.80;;;12.60;73.00;;;;;;21082161;28;20593;-68
2022/04/23 04:32:59;;;;;;;7.53;6.80;;;12.70;73.70;;;;;;21082710;28;20217;-64
2022/04/23 04:43:01;;;;;;;8.67;7.40;;;12.70;72.70;;;;;;21063659;28;20231;-63
2022/04/23 04:53:03;;;;;;;9.40;7.00;;;12.70;72.70;;;;;;21081595;28;20213;-65
2022/04/23 05:03:05;;;;;;;9.40;7.50;;;12.80;72.60;;;;;;21062242;28;20234;-64
2022/04/23 05:13:07;;;;;;;8.80;7.50;;;12.80;72.70;;;;;;21062511;28;20211;-64
2022/04/23 05:23:08;;;;;;;9.80;8.63;;;12.80;73.30;;;;;;21079719;28;20233;-66
2022/04/23 05:33:11;;;;;;;11.87;9.73;;;12.80;72.60;;;;;;21077823;28;20198;-66
2022/04/23 05:43:13;;;;;;;13.07;10.63;;;12.90;72.50;;;;;;21082102;28;20231;-62
2022/04/23 05:53:14;;;;;;;13.17;10.77;;;12.90;73.00;;;;;;21079520;28;20207;-66
2022/04/23 06:03:16;;;;;;;14.00;12.03;;;13.10;72.50;;;;;;21062096;28;20230;-64
2022/04/23 06:13:18;;;;;;;15.50;12.13;;;13.10;72.80;;;;;;21078044;28;20209;-64
2022/04/23 06:23:20;;;;;;;17.10;12.93;;;13.20;72.50;;;;;;21077156;28;20592;-63
2022/04/23 06:33:21;;;;;;;17.60;13.10;;;13.30;72.10;;;;;;21076476;28;20237;-65
2022/04/23 06:43:23;;;;;;;18.33;12.97;;;13.40;72.70;;;;;;21075716;28;20231;-65
2022/04/23 06:53:25;;;;;;;16.23;13.23;;;13.70;71.90;;;;;;21089774;28;20576;-63
2022/04/23 07:03:32;;;;;;;16.33;13.50;;;14.10;71.10;;;;;;21090205;28;20272;-66
2022/04/23 07:13:35;;;;;;;17.30;12.80;;;14.30;69.70;;;;;;21089897;28;20683;-65
2022/04/23 07:44:18;;;;;;;18.20;13.23;;;14.50;68.70;;;;;;21087011;28;20252;-64
2022/04/23 07:54:20;;;;;;;21.67;13.90;;;14.70;68.50;;;;;;21086175;28;20218;-64
2022/04/23 08:04:21;;;;;;;15.93;13.00;;;14.70;69.10;;;;;;21085091;28;20234;-64
2022/04/23 08:14:23;;;;;;;17.10;12.87;;;14.90;68.00;;;;;;21084031;28;20202;-63
2022/04/23 08:24:25;;;;;;;17.73;13.43;;;14.80;67.80;;;;;;21083020;28;20246;-64
2022/04/23 08:34:26;;;;;;;19.23;14.10;;;14.80;67.90;;;;;;21082321;28;20204;-64
2022/04/23 08:44:28;;;;;;;20.23;13.50;;;15.00;67.70;;;;;;21081398;28;20237;-64
2022/04/23 08:54:31;;;;;;;19.03;14.23;;;15.20;67.20;;;;;;21063118;28;20206;-67
2022/04/23 09:04:35;;;;;;;17.90;13.27;;;15.50;66.90;;;;;;21079865;28;20246;-65
2022/04/23 09:14:38;;;;;;;30.30;22.83;;;15.70;66.50;;;;;;21078313;28;20198;-69
2022/04/23 09:24:48;;;;;;;21.07;15.67;;;15.90;66.40;;;;;;21078547;28;20249;-65
2022/04/23 09:35:09;;;;;;;29.13;16.97;;;16.00;66.70;;;;;;21078785;28;20215;-68
2022/04/23 09:45:17;;;;;;;19.47;15.97;;;15.80;66.10;;;;;;21081958;28;20242;-69
2022/04/23 09:55:21;;;;;;;22.73;16.03;;;15.40;66.40;;;;;;21081476;28;20211;-68
2022/04/23 10:05:23;;;;;;;23.43;17.17;;;15.40;67.10;;;;;;21077355;28;20285;-67
2022/04/23 10:15:25;;;;;;;25.27;17.43;;;15.20;66.50;;;;;;21076811;28;20210;-64
2022/04/23 10:25:42;;;;;;;25.63;18.20;;;14.90;66.40;;;;;;21086077;28;20245;-64
2022/04/23 10:35:43;;;;;;;25.50;17.37;;;14.80;66.70;;;;;;21092432;28;20286;-63
2022/04/23 10:45:46;;;;;;;29.50;18.17;;;15.00;66.90;;;;;;21090739;28;20236;-63
2022/04/23 10:56:06;;;;;;;23.63;16.73;;;15.00;67.50;;;;;;21090421;28;20206;-68
2022/04/23 11:16:53;;;;;;;19.50;14.77;;;15.60;65.40;;;;;;21088693;28;20672;-66
2022/04/23 11:26:56;;;;;;;21.83;15.10;;;16.10;63.60;;;;;;21088146;28;20247;-63
2022/04/23 11:36:58;;;;;;;20.17;14.07;;;16.30;64.00;;;;;;21069094;28;20209;-65
2022/04/23 11:47:00;;;;;;;19.27;13.70;;;16.20;62.00;;;;;;21086113;28;20250;-65
2022/04/23 11:57:02;;;;;;;14.70;11.73;;;16.00;62.00;;;;;;21067652;28;20672;-64
2022/04/23 12:07:04;;;;;;;15.37;11.40;;;16.20;61.60;;;;;;21084431;28;20317;-64
2022/04/23 12:17:07;;;;;;;18.43;13.17;;;16.20;61.00;;;;;;21084720;28;20241;-64
2022/04/23 12:27:09;;;;;;;16.77;11.77;;;16.10;60.70;;;;;;21082703;28;20248;-63
2022/04/23 12:47:35;;;;;;;13.87;10.97;;;16.10;59.60;;;;;;21082049;28;20629;-64
2022/04/23 12:57:38;;;;;;;13.50;10.77;;;16.30;60.00;;;;;;21097903;28;20740;-63
2022/04/23 13:18:00;;;;;;;11.97;9.80;;;16.80;58.90;;;;;;21086111;28;20242;-68
2022/04/23 13:28:02;;;;;;;9.80;8.40;;;17.30;57.60;;;;;;21087634;28;20247;-62
2022/04/23 13:38:04;;;;;;;13.13;10.17;;;17.50;56.80;;;;;;21084297;28;20199;-68
2022/04/23 13:48:07;;;;;;;10.30;8.30;;;17.90;56.10;;;;;;21060417;28;20256;-68
2022/04/23 13:58:10;;;;;;;9.93;7.77;;;18.00;55.60;;;;;;21086163;28;20631;-66
2022/04/23 14:18:32;;;;;;;10.20;7.97;;;18.80;55.20;;;;;;21095599;28;20212;-63
2022/04/23 14:28:34;;;;;;;10.27;7.53;;;19.30;53.20;;;;;;21093024;28;20243;-68
2022/04/23 14:38:42;;;;;;;9.53;8.13;;;18.50;53.50;;;;;;21091894;28;20666;-68
2022/04/23 14:48:45;;;;;;;8.50;7.60;;;17.90;54.20;;;;;;21091345;28;20235;-68
2022/04/23 14:58:47;;;;;;;9.33;7.80;;;17.90;54.80;;;;;;21090242;28;20223;-69
2022/04/23 15:08:48;;;;;;;10.03;7.53;;;18.40;54.20;;;;;;21088854;28;20238;-68
2022/04/23 15:18:50;;;;;;;10.07;7.23;;;18.40;54.60;;;;;;21089156;28;20810;-67
2022/04/23 15:28:52;;;;;;;8.10;7.13;;;18.70;53.50;;;;;;21088209;28;20242;-67
2022/04/23 15:38:56;;;;;;;8.90;7.93;;;18.70;53.10;;;;;;21088769;28;20207;-69
2022/04/23 15:48:58;;;;;;;10.57;7.93;;;18.70;53.80;;;;;;21070997;28;20593;-64
2022/04/23 15:59:00;;;;;;;12.20;8.07;;;18.50;54.60;;;;;;21085416;28;20203;-67
2022/04/23 16:09:02;;;;;;;12.07;8.30;;;18.40;53.40;;;;;;21066890;28;20263;-64
2022/04/23 16:19:04;;;;;;;9.40;8.23;;;18.40;53.90;;;;;;21085677;28;20207;-64
2022/04/23 16:29:05;;;;;;;12.33;8.37;;;18.20;53.60;;;;;;21086072;28;20371;-64
2022/04/23 16:49:28;;;;;;;7.97;7.00;;;18.00;54.50;;;;;;21087172;28;20310;-64
2022/04/23 17:03:25;;;;;;;11.20;8.37;;;17.60;54.40;;;;;;21253267;27;20565;-64
2022/04/23 17:13:27;;;;;;;9.77;7.87;;;17.30;55.00;;;;;;21235823;27;20621;-64
2022/04/23 17:23:29;;;;;;;14.03;8.17;;;17.20;55.80;;;;;;21235429;27;20571;-64
2022/04/23 17:33:32;;;;;;;13.50;7.27;;;17.00;56.20;;;;;;21234537;27;20212;-63
2022/04/23 17:43:33;;;;;;;11.90;7.97;;;16.80;56.40;;;;;;21233145;27;20214;-64
2022/04/23 17:53:35;;;;;;;8.77;7.30;;;16.70;56.80;;;;;;21233261;27;20203;-63
2022/04/23 18:13:57;;;;;;;17.70;7.43;;;16.50;57.50;;;;;;21178752;27;20578;-67
2022/04/23 18:24:01;;;;;;;8.47;7.37;;;16.30;57.80;;;;;;21173058;28;20291;-65
2022/04/23 18:34:02;;;;;;;12.63;8.97;;;16.20;58.30;;;;;;21172709;28;20697;-66
2022/04/23 18:44:04;;;;;;;13.57;8.07;;;16.20;58.50;;;;;;21171376;28;20205;-65
2022/04/23 18:54:06;;;;;;;11.47;8.20;;;16.00;58.50;;;;;;21170624;28;20236;-68
2022/04/23 19:04:09;;;;;;;11.00;8.17;;;16.00;58.50;;;;;;21170609;28;20228;-66
2022/04/23 19:14:11;;;;;;;9.13;7.73;;;16.00;58.50;;;;;;21169481;28;20232;-66
2022/04/23 19:34:35;;;;;;;8.37;7.20;;;15.90;58.90;;;;;;21168390;28;20245;-65
2022/04/23 19:44:38;;;;;;;10.17;7.53;;;15.90;58.90;;;;;;21167436;28;20267;-65
2022/04/23 19:54:40;;;;;;;12.27;7.87;;;15.90;58.50;;;;;;21165394;28;20256;-63
2022/04/23 20:04:42;;;;;;;10.60;6.80;;;15.80;58.90;;;;;;21165341;28;20675;-69
2022/04/23 20:14:44;;;;;;;12.80;8.63;;;15.70;58.40;;;;;;21164196;28;20230;-65
2022/04/23 20:24:46;;;;;;;9.50;7.57;;;15.60;58.70;;;;;;21163393;28;20557;-64
2022/04/23 20:45:09;;;;;;;8.83;7.40;;;15.30;59.10;;;;;;21162308;28;20215;-65
2022/04/23 20:55:11;;;;;;;8.67;7.33;;;15.20;59.20;;;;;;21161776;28;20600;-63
2022/04/23 21:05:13;;;;;;;13.03;7.93;;;15.10;59.50;;;;;;21162008;28;20209;-66
2022/04/23 21:15:15;;;;;;;12.00;7.87;;;15.10;59.70;;;;;;21160936;28;20232;-64
2022/04/23 21:25:17;;;;;;;11.13;7.73;;;15.00;60.20;;;;;;21161235;28;20232;-65
2022/04/23 21:35:19;;;;;;;13.40;7.87;;;15.00;60.20;;;;;;21160645;28;20240;-65
2022/04/23 21:45:21;;;;;;;13.30;8.00;;;14.90;61.00;;;;;;21168070;28;20296;-65
2022/04/23 21:55:23;;;;;;;10.07;7.90;;;14.70;60.60;;;;;;21175406;28;20252;-65
2022/04/23 22:05:24;;;;;;;8.83;7.93;;;14.70;61.30;;;;;;21175214;28;20209;-65
2022/04/23 22:15:26;;;;;;;11.37;8.20;;;14.60;61.50;;;;;;21174619;28;20247;-65
2022/04/23 22:25:28;;;;;;;11.10;8.63;;;14.50;61.50;;;;;;21174323;28;20221;-66
2022/04/23 22:35:30;;;;;;;9.97;8.27;;;14.30;61.10;;;;;;21171101;28;20236;-68
2022/04/23 22:45:31;;;;;;;10.83;7.80;;;14.30;61.80;;;;;;21172428;28;20202;-68
2022/04/23 22:55:33;;;;;;;12.77;8.10;;;14.10;61.30;;;;;;21170811;27;20241;-63
2022/04/23 23:05:35;;;;;;;9.53;7.67;;;13.90;61.50;;;;;;21169620;28;20211;-63
2022/04/23 23:15:43;;;;;;;13.73;7.53;;;13.90;61.50;;;;;;21169955;28;20250;-64
2022/04/23 23:25:45;;;;;;;8.77;7.30;;;13.80;62.10;;;;;;21169040;28;20773;-64
2022/04/23 23:35:47;;;;;;;13.23;7.67;;;13.60;61.50;;;;;;21168068;28;20321;-65
2022/04/23 23:45:50;;;;;;;8.20;7.27;;;13.60;62.10;;;;;;21167763;28;20204;-66
2022/04/23 23:55:51;;;;;;;9.43;7.07;;;13.60;61.10;;;;;;21166270;28;20231;-66
